createdAt,value
2022-10-15T00:01:51.088Z,15.82
2022-10-15T00:04:19.351Z,15.27
2022-10-15T00:06:47.465Z,15.68
2022-10-15T00:09:15.647Z,15.73
2022-10-15T00:11:43.904Z,15.68
2022-10-15T00:14:12.065Z,16.17
2022-10-15T00:16:41.606Z,16.20
2022-10-15T00:19:11.403Z,17.13
2022-10-15T00:21:40.263Z,16.27
2022-10-15T00:24:10.807Z,16.60
2022-10-15T00:26:39.105Z,16.77
2022-10-15T00:29:07.418Z,17.00
2022-10-15T00:31:35.781Z,17.50
2022-10-15T00:34:05.391Z,16.70
2022-10-15T00:36:37.247Z,18.73
2022-10-15T00:39:08.293Z,17.38
2022-10-15T00:41:40.941Z,18.42
2022-10-15T00:44:50.840Z,17.25
2022-10-15T00:47:26.185Z,17.25
2022-10-15T00:50:05.748Z,19.13
2022-10-15T00:52:46.015Z,18.25
2022-10-15T00:55:20.350Z,18.73
2022-10-15T00:57:51.203Z,18.88
2022-10-15T01:00:20.885Z,20.88
2022-10-15T01:02:49.382Z,20.20
2022-10-15T01:05:21.126Z,21.77
2022-10-15T01:07:49.235Z,19.40
2022-10-15T01:10:20.230Z,21.10
2022-10-15T01:13:13.918Z,22.02
2022-10-15T01:15:52.140Z,22.20
2022-10-15T01:18:28.548Z,23.60
2022-10-15T01:21:10.045Z,21.25
2022-10-15T01:24:39.377Z,21.30
2022-10-15T01:27:35.785Z,22.63
2022-10-15T01:30:25.889Z,22.23
2022-10-15T01:33:23.854Z,22.10
2022-10-15T01:35:55.954Z,23.77
2022-10-15T01:38:40.999Z,23.02
2022-10-15T01:41:15.047Z,24.88
2022-10-15T01:43:49.430Z,24.00
2022-10-15T01:46:46.344Z,24.27
2022-10-15T01:49:26.314Z,23.60
2022-10-15T01:51:57.328Z,24.55
2022-10-15T01:54:28.966Z,22.83
2022-10-15T01:57:00.625Z,24.38
2022-10-15T01:59:34.583Z,21.92
2022-10-15T02:02:04.336Z,23.30
2022-10-15T02:04:33.823Z,24.00
2022-10-15T02:07:07.552Z,24.75
2022-10-15T02:09:49.748Z,24.98
2022-10-15T02:12:38.624Z,25.67
2022-10-15T02:15:17.944Z,26.30
2022-10-15T02:18:03.266Z,25.13
2022-10-15T02:20:41.480Z,25.70
2022-10-15T02:23:18.304Z,25.30
2022-10-15T02:25:49.666Z,25.40
2022-10-15T02:28:20.324Z,25.00
2022-10-15T02:30:53.145Z,26.52
2022-10-15T02:33:25.419Z,25.17
2022-10-15T02:35:56.019Z,25.25
2022-10-15T02:38:28.593Z,24.00
2022-10-15T02:40:59.183Z,25.98
2022-10-15T02:43:27.849Z,25.20
2022-10-15T02:45:57.516Z,25.60
2022-10-15T02:48:28.494Z,24.63
2022-10-15T02:50:56.678Z,24.88
2022-10-15T02:53:24.871Z,24.67
2022-10-15T02:55:53.068Z,24.85
2022-10-15T02:58:21.570Z,26.05
2022-10-15T03:00:50.655Z,26.98
2022-10-15T03:03:19.051Z,26.80
2022-10-15T03:05:48.732Z,25.80
2022-10-15T03:08:17.886Z,26.25
2022-10-15T03:10:46.751Z,25.33
2022-10-15T03:13:15.243Z,25.38
2022-10-15T03:15:49.442Z,25.02
2022-10-15T03:18:17.706Z,25.83
2022-10-15T03:20:47.314Z,26.08
2022-10-15T03:23:17.788Z,25.20
2022-10-15T03:25:46.649Z,23.75
2022-10-15T03:28:19.995Z,23.95
2022-10-15T03:30:48.854Z,23.42
2022-10-15T03:33:19.841Z,22.75
2022-10-15T03:35:50.120Z,22.65
2022-10-15T03:38:20.156Z,21.70
2022-10-15T03:40:49.810Z,22.60
2022-10-15T03:43:30.993Z,22.55
2022-10-15T03:46:04.205Z,22.45
2022-10-15T03:48:34.734Z,22.50
2022-10-15T03:51:02.945Z,22.83
2022-10-15T03:53:32.889Z,21.75
2022-10-15T03:56:05.563Z,23.10
2022-10-15T03:58:34.847Z,23.75
2022-10-15T04:01:10.784Z,22.58
2022-10-15T04:03:40.197Z,23.20
2022-10-15T04:06:09.883Z,22.92
2022-10-15T04:08:40.633Z,24.80
2022-10-15T04:11:21.241Z,23.08
2022-10-15T04:13:58.224Z,23.48
2022-10-15T04:16:26.667Z,22.95
2022-10-15T04:18:55.621Z,24.75
2022-10-15T04:21:23.855Z,24.63
2022-10-15T04:23:58.861Z,24.00
2022-10-15T04:26:34.592Z,24.38
2022-10-15T04:29:03.096Z,24.65
2022-10-15T04:31:32.176Z,24.33
2022-10-15T04:34:01.105Z,27.13
2022-10-15T04:36:29.839Z,26.45
2022-10-15T04:39:06.914Z,25.35
2022-10-15T04:41:40.310Z,25.30
2022-10-15T04:44:14.697Z,27.10
2022-10-15T04:46:47.754Z,25.67
2022-10-15T04:49:33.287Z,26.85
2022-10-15T04:52:04.432Z,27.77
2022-10-15T04:54:43.910Z,29.27
2022-10-15T04:57:13.003Z,27.88
2022-10-15T04:59:41.907Z,27.55
2022-10-15T05:02:34.927Z,27.25
2022-10-15T05:05:20.552Z,28.67
2022-10-15T05:07:54.426Z,28.27
2022-10-15T05:10:24.574Z,27.90
2022-10-15T05:12:55.900Z,27.70
2022-10-15T05:15:31.261Z,30.45
2022-10-15T05:17:59.466Z,27.02
2022-10-15T05:20:36.224Z,29.55
2022-10-15T05:23:06.263Z,28.73
2022-10-15T05:25:37.630Z,28.15
2022-10-15T05:28:06.161Z,29.35
2022-10-15T05:30:35.968Z,30.52
2022-10-15T05:33:05.148Z,29.48
2022-10-15T05:35:33.277Z,29.83
2022-10-15T05:38:04.372Z,30.35
2022-10-15T05:40:32.830Z,30.08
2022-10-15T05:43:21.836Z,30.98
2022-10-15T05:45:50.596Z,30.65
2022-10-15T05:48:19.798Z,31.58
2022-10-15T05:50:48.774Z,30.45
2022-10-15T05:53:23.886Z,31.48
2022-10-15T05:56:03.621Z,30.40
2022-10-15T05:58:37.471Z,31.30
2022-10-15T06:01:09.362Z,31.23
2022-10-15T06:03:41.378Z,30.38
2022-10-15T06:06:17.455Z,32.08
2022-10-15T06:08:45.995Z,31.27
2022-10-15T06:11:15.053Z,31.83
2022-10-15T06:13:46.075Z,31.50
2022-10-15T06:16:19.343Z,32.53
2022-10-15T06:18:52.627Z,33.25
2022-10-15T06:21:20.985Z,32.63
2022-10-15T06:23:49.159Z,32.97
2022-10-15T06:26:17.968Z,32.20
2022-10-15T06:28:50.743Z,31.08
2022-10-15T06:31:19.149Z,33.15
2022-10-15T06:33:47.557Z,33.22
2022-10-15T06:36:15.652Z,32.25
2022-10-15T06:38:44.662Z,32.47
2022-10-15T06:41:13.042Z,31.98
2022-10-15T06:43:41.461Z,30.55
2022-10-15T06:46:12.568Z,30.75
2022-10-15T06:48:40.747Z,31.27
2022-10-15T06:51:08.844Z,30.17
2022-10-15T06:53:40.440Z,31.45
2022-10-15T06:56:08.958Z,30.75
2022-10-15T06:58:42.591Z,30.42
2022-10-15T07:01:12.157Z,30.65
2022-10-15T07:03:40.276Z,30.65
2022-10-15T07:06:10.594Z,30.20
2022-10-15T07:08:38.796Z,30.48
2022-10-15T07:11:10.599Z,31.33
2022-10-15T07:13:40.167Z,30.45
2022-10-15T07:16:13.698Z,30.00
2022-10-15T07:18:41.807Z,29.45
2022-10-15T07:23:44.359Z,28.67
2022-10-15T07:26:12.833Z,29.50
2022-10-15T07:28:41.318Z,30.08
2022-10-15T07:31:11.280Z,29.85
2022-10-15T07:33:39.758Z,29.83
2022-10-15T07:36:11.098Z,28.45
2022-10-15T07:38:41.035Z,29.90
2022-10-15T07:41:11.802Z,27.67
2022-10-15T07:43:44.452Z,29.17
2022-10-15T07:46:14.115Z,28.40
2022-10-15T07:48:42.161Z,29.15
2022-10-15T07:51:13.003Z,28.58
2022-10-15T07:53:41.229Z,28.00
2022-10-15T07:56:14.273Z,25.80
2022-10-15T07:58:43.136Z,27.25
2022-10-15T08:01:13.180Z,24.92
2022-10-15T08:03:41.212Z,26.02
2022-10-15T08:06:09.661Z,24.70
2022-10-15T08:08:38.545Z,25.23
2022-10-15T08:11:08.179Z,25.92
2022-10-15T08:13:36.477Z,24.50
2022-10-15T08:16:05.269Z,25.65
2022-10-15T08:18:34.760Z,23.80
2022-10-15T08:21:03.256Z,27.33
2022-10-15T08:23:31.501Z,23.38
2022-10-15T08:26:00.541Z,23.95
2022-10-15T08:28:29.424Z,23.73
2022-10-15T08:31:02.689Z,25.52
2022-10-15T08:33:35.966Z,23.58
2022-10-15T08:36:06.255Z,24.40
2022-10-15T08:38:35.651Z,24.95
2022-10-15T08:41:16.739Z,21.63
2022-10-15T08:43:48.333Z,20.48
2022-10-15T08:46:24.604Z,20.27
2022-10-15T08:48:57.230Z,21.40
2022-10-15T08:51:31.614Z,22.40
2022-10-15T08:54:05.397Z,22.90
2022-10-15T08:56:39.367Z,22.10
2022-10-15T08:59:21.776Z,22.42
2022-10-15T09:01:56.507Z,22.35
2022-10-15T09:04:35.256Z,21.73
2022-10-15T09:07:13.730Z,20.42
2022-10-15T09:09:50.027Z,20.83
2022-10-15T09:12:41.908Z,19.85
2022-10-15T09:15:16.036Z,21.52
2022-10-15T09:17:49.092Z,19.70
2022-10-15T09:20:31.023Z,18.63
2022-10-15T09:22:59.445Z,18.45
2022-10-15T09:25:37.176Z,16.10
2022-10-15T09:28:12.268Z,15.85
2022-10-15T09:30:48.737Z,16.30
2022-10-15T09:33:30.545Z,17.30
2022-10-15T09:36:33.414Z,18.00
2022-10-15T09:39:32.648Z,17.45
2022-10-15T09:42:20.111Z,17.05
2022-10-15T09:44:49.266Z,16.48
2022-10-15T09:47:24.715Z,16.10
2022-10-15T09:49:56.777Z,16.20
2022-10-15T09:52:45.623Z,16.05
2022-10-15T09:55:35.188Z,15.48
2022-10-15T09:58:09.539Z,17.00
2022-10-15T10:00:58.114Z,16.27
2022-10-15T10:03:30.021Z,17.13
2022-10-15T10:06:04.608Z,16.05
2022-10-15T10:08:50.546Z,15.30
2022-10-15T10:11:22.783Z,15.40
2022-10-15T10:13:57.861Z,14.70
2022-10-15T10:16:30.091Z,15.32
2022-10-15T10:19:12.850Z,14.10
2022-10-15T10:21:43.464Z,14.90
2022-10-15T10:24:30.555Z,15.48
2022-10-15T10:26:59.787Z,13.40
2022-10-15T10:29:34.788Z,11.80
2022-10-15T10:32:18.206Z,13.38
2022-10-15T10:34:51.507Z,13.15
2022-10-15T10:37:21.571Z,12.18
2022-10-15T10:39:57.129Z,12.18
2022-10-15T10:42:34.557Z,10.20
2022-10-15T10:47:52.562Z,10.27
2022-10-15T10:50:32.411Z,9.35
2022-10-15T10:53:22.403Z,7.63
2022-10-15T10:55:56.127Z,8.40
2022-10-15T10:58:32.300Z,8.38
2022-10-15T11:01:00.540Z,7.40
2022-10-15T11:03:37.840Z,8.60
2022-10-15T11:06:25.661Z,7.38
2022-10-15T11:09:13.966Z,6.47
2022-10-15T11:12:02.234Z,5.20
2022-10-15T11:14:45.840Z,5.10
2022-10-15T11:17:25.620Z,5.68
2022-10-15T11:20:25.655Z,8.32
2022-10-15T11:23:09.428Z,7.55
2022-10-15T11:25:50.561Z,5.50
2022-10-15T11:28:38.706Z,5.43
2022-10-15T11:34:11.876Z,4.30
2022-10-15T11:36:59.679Z,4.25
2022-10-15T11:40:02.717Z,5.35
2022-10-15T11:42:38.419Z,4.72
2022-10-15T11:45:43.504Z,4.65
2022-10-15T11:48:23.327Z,4.78
2022-10-15T11:50:57.574Z,4.78
2022-10-15T11:53:52.127Z,4.50
2022-10-15T11:56:26.583Z,4.07
2022-10-15T11:59:03.916Z,3.90
2022-10-15T12:01:40.174Z,3.60
2022-10-15T12:04:17.312Z,3.38
2022-10-15T12:06:53.856Z,3.35
2022-10-15T12:09:29.608Z,3.45
2022-10-15T12:12:11.077Z,3.50
2022-10-15T12:14:51.663Z,3.53
2022-10-15T12:17:32.006Z,3.58
2022-10-15T12:20:09.644Z,3.78
2022-10-15T12:22:57.085Z,3.75
2022-10-15T12:25:47.309Z,3.65
2022-10-15T12:28:21.708Z,4.20
2022-10-15T12:31:02.109Z,4.15
2022-10-15T12:33:46.702Z,3.97
2022-10-15T12:36:28.209Z,4.18
2022-10-15T12:39:00.704Z,4.05
2022-10-15T12:41:43.352Z,4.35
2022-10-15T12:44:23.005Z,4.47
2022-10-15T12:46:53.173Z,4.45
2022-10-15T12:49:55.829Z,4.60
2022-10-15T12:52:58.057Z,4.60
2022-10-15T12:55:33.361Z,5.05
2022-10-15T12:58:27.947Z,4.53
2022-10-15T13:00:56.166Z,5.50
2022-10-15T13:03:37.514Z,5.45
2022-10-15T13:06:35.622Z,4.93
2022-10-15T13:09:24.883Z,5.13
2022-10-15T13:11:55.688Z,4.82
2022-10-15T13:14:33.408Z,4.82
2022-10-15T13:17:07.184Z,4.90
2022-10-15T13:19:41.106Z,4.63
2022-10-15T13:22:24.703Z,6.30
2022-10-15T13:24:55.625Z,5.53
2022-10-15T13:27:26.277Z,5.45
2022-10-15T13:29:57.406Z,6.22
2022-10-15T13:32:28.473Z,5.47
2022-10-15T13:34:58.417Z,5.78
2022-10-15T13:37:33.594Z,5.30
2022-10-15T13:40:07.619Z,5.75
2022-10-15T13:42:37.204Z,6.22
2022-10-15T13:45:18.168Z,6.15
2022-10-15T13:47:51.052Z,6.57
2022-10-15T13:50:24.030Z,7.15
2022-10-15T13:52:59.284Z,7.43
2022-10-15T13:55:31.382Z,7.90
2022-10-15T13:58:04.268Z,7.97
2022-10-15T14:00:36.778Z,9.00
2022-10-15T14:03:18.489Z,8.43
2022-10-15T14:05:49.116Z,8.75
2022-10-15T14:08:26.425Z,8.25
2022-10-15T14:10:59.057Z,9.18
2022-10-15T14:13:28.576Z,9.82
2022-10-15T14:16:16.451Z,10.10
2022-10-15T14:18:49.422Z,9.70
2022-10-15T14:21:21.554Z,9.77
2022-10-15T14:23:51.444Z,10.15
2022-10-15T14:26:25.658Z,11.52
2022-10-15T14:28:55.875Z,11.32
2022-10-15T14:31:33.648Z,12.40
2022-10-15T14:34:02.172Z,12.20
2022-10-15T14:36:41.602Z,11.65
2022-10-15T14:39:30.689Z,12.73
2022-10-15T14:42:01.554Z,12.45
2022-10-15T14:44:46.618Z,11.80
2022-10-15T14:47:23.814Z,13.02
2022-10-15T14:49:57.197Z,12.02
2022-10-15T14:52:25.667Z,13.48
2022-10-15T14:55:08.183Z,13.25
2022-10-15T14:57:42.512Z,13.88
2022-10-15T15:00:22.815Z,14.88
2022-10-15T15:02:51.710Z,14.30
2022-10-15T15:05:23.774Z,14.63
2022-10-15T15:07:52.656Z,13.80
2022-10-15T15:10:22.393Z,14.00
2022-10-15T15:12:53.969Z,14.63
2022-10-15T15:15:25.895Z,15.05
2022-10-15T15:17:54.309Z,15.50
2022-10-15T15:20:24.155Z,15.32
2022-10-15T15:22:55.584Z,15.48
2022-10-15T15:25:33.637Z,14.15
2022-10-15T15:28:02.168Z,15.05
2022-10-15T15:30:32.718Z,14.43
2022-10-15T15:33:02.023Z,13.20
2022-10-15T15:35:37.929Z,13.48
2022-10-15T15:38:08.583Z,14.07
2022-10-15T15:40:38.195Z,14.15
2022-10-15T15:43:06.347Z,13.80
2022-10-15T15:45:34.772Z,13.55
2022-10-15T15:48:03.625Z,14.00
2022-10-15T15:50:32.612Z,13.85
2022-10-15T15:53:01.225Z,14.57
2022-10-15T15:55:30.533Z,14.27
2022-10-15T15:57:59.992Z,14.73
2022-10-15T16:00:28.244Z,13.90
2022-10-15T16:02:57.964Z,14.32
2022-10-15T16:05:26.788Z,14.40
2022-10-15T16:07:55.141Z,14.55
2022-10-15T16:10:23.665Z,14.90
2022-10-15T16:12:51.809Z,14.07
2022-10-15T16:15:21.387Z,13.65
2022-10-15T16:17:49.522Z,14.23
2022-10-15T16:20:17.825Z,14.25
2022-10-15T16:22:46.014Z,13.98
2022-10-15T16:25:15.100Z,14.27
2022-10-15T16:27:45.464Z,13.68
2022-10-15T16:30:13.571Z,13.77
2022-10-15T16:32:43.007Z,14.65
2022-10-15T16:35:11.527Z,12.60
2022-10-15T16:37:39.790Z,14.10
2022-10-15T16:40:09.972Z,13.88
2022-10-15T16:42:38.134Z,12.95
2022-10-15T16:45:07.606Z,13.00
2022-10-15T16:47:35.862Z,14.45
2022-10-15T16:50:07.084Z,12.57
2022-10-15T16:52:35.697Z,12.68
2022-10-15T16:55:03.866Z,11.93
2022-10-15T16:57:32.111Z,11.73
2022-10-15T17:00:00.641Z,11.60
2022-10-15T17:02:28.847Z,12.05
2022-10-15T17:04:56.996Z,12.10
2022-10-15T17:07:26.899Z,11.80
2022-10-15T17:09:55.213Z,11.10
2022-10-15T17:12:23.858Z,11.57
2022-10-15T17:14:52.754Z,12.88
2022-10-15T17:17:21.291Z,11.18
2022-10-15T17:19:49.498Z,11.82
2022-10-15T17:22:17.592Z,11.35
2022-10-15T17:24:47.389Z,10.57
2022-10-15T17:27:15.568Z,10.80
2022-10-15T17:29:44.585Z,11.52
2022-10-15T17:32:12.724Z,11.05
2022-10-15T17:34:40.998Z,11.82
2022-10-15T17:37:09.579Z,10.98
2022-10-15T17:39:37.859Z,11.43
2022-10-15T17:42:07.393Z,10.82
2022-10-15T17:44:35.461Z,11.50
2022-10-15T17:47:03.514Z,10.80
2022-10-15T17:49:31.608Z,11.10
2022-10-15T17:51:59.802Z,12.27
2022-10-15T17:54:27.877Z,11.93
2022-10-15T17:56:56.064Z,12.35
2022-10-15T17:59:25.551Z,11.65
2022-10-15T18:01:58.437Z,11.88
2022-10-15T18:04:28.161Z,12.85
2022-10-15T18:06:56.259Z,12.48
2022-10-15T18:09:28.655Z,11.13
2022-10-15T18:12:01.635Z,11.88
2022-10-15T18:14:33.462Z,12.75
2022-10-15T18:17:01.877Z,11.38
2022-10-15T18:19:30.640Z,11.00
2022-10-15T18:21:58.787Z,10.13
2022-10-15T18:24:27.167Z,9.55
2022-10-15T18:26:55.330Z,9.45
2022-10-15T18:29:25.219Z,9.32
2022-10-15T18:31:57.987Z,7.88
2022-10-15T18:34:28.707Z,7.82
2022-10-15T18:36:57.360Z,6.75
2022-10-15T18:39:27.723Z,6.90
2022-10-15T18:41:56.419Z,6.47
2022-10-15T18:44:25.429Z,5.93
2022-10-15T18:46:54.876Z,5.90
2022-10-15T18:49:23.056Z,6.35
2022-10-15T18:51:53.067Z,6.05
2022-10-15T18:54:22.877Z,6.00
2022-10-15T18:56:52.532Z,5.70
2022-10-15T18:59:21.557Z,5.53
2022-10-15T19:01:50.725Z,5.63
2022-10-15T19:04:23.917Z,5.93
2022-10-15T19:06:54.487Z,5.35
2022-10-15T19:09:25.981Z,5.78
2022-10-15T19:11:56.881Z,5.78
2022-10-15T19:14:28.961Z,5.90
2022-10-15T19:16:57.988Z,5.72
2022-10-15T19:19:29.640Z,5.72
2022-10-15T19:21:59.264Z,5.53
2022-10-15T19:24:27.690Z,5.78
2022-10-15T19:26:55.914Z,5.97
2022-10-15T19:29:24.239Z,6.28
2022-10-15T19:31:53.995Z,5.82
2022-10-15T19:34:23.164Z,5.80
2022-10-15T19:36:55.941Z,5.85
2022-10-15T19:39:25.338Z,6.30
2022-10-15T19:41:54.818Z,6.15
2022-10-15T19:44:25.674Z,6.30
2022-10-15T19:46:55.329Z,6.40
2022-10-15T19:49:23.964Z,6.28
2022-10-15T19:51:55.424Z,6.20
2022-10-15T19:54:29.167Z,6.38
2022-10-15T19:56:57.397Z,6.43
2022-10-15T19:59:25.556Z,6.30
2022-10-15T20:01:54.727Z,7.03
2022-10-15T20:04:22.872Z,6.93
2022-10-15T20:06:52.875Z,7.30
2022-10-15T20:09:22.418Z,6.75
2022-10-15T20:11:50.652Z,7.20
2022-10-15T20:14:18.844Z,6.93
2022-10-15T20:16:47.016Z,7.88
2022-10-15T20:19:15.330Z,8.13
2022-10-15T20:21:43.648Z,8.18
2022-10-15T20:24:12.816Z,7.53
2022-10-15T20:26:42.274Z,7.80
2022-10-15T20:29:10.567Z,8.10
2022-10-15T20:31:38.702Z,8.93
2022-10-15T20:34:06.871Z,8.45
2022-10-15T20:36:35.125Z,8.80
2022-10-15T20:39:03.616Z,8.52
2022-10-15T20:41:33.047Z,9.18
2022-10-15T20:44:02.668Z,9.75
2022-10-15T20:46:34.920Z,9.07
2022-10-15T20:49:09.186Z,9.38
2022-10-15T20:51:41.473Z,9.50
2022-10-15T20:54:12.854Z,9.23
2022-10-15T20:56:42.684Z,8.95
2022-10-15T20:59:12.986Z,9.25
2022-10-15T21:01:41.324Z,9.63
2022-10-15T21:04:09.522Z,9.85
2022-10-15T21:06:37.898Z,9.38
2022-10-15T21:09:06.305Z,9.05
2022-10-15T21:11:34.454Z,9.45
2022-10-15T21:14:02.697Z,9.23
2022-10-15T21:19:05.645Z,8.88
2022-10-15T21:21:33.839Z,9.88
2022-10-15T21:24:02.156Z,8.85
2022-10-15T21:26:30.354Z,9.32
2022-10-15T21:29:01.040Z,9.05
2022-10-15T21:31:30.932Z,9.40
2022-10-15T21:33:59.048Z,9.45
2022-10-15T21:36:28.962Z,9.20
2022-10-15T21:39:01.309Z,8.88
2022-10-15T21:41:33.377Z,9.48
2022-10-15T21:44:03.947Z,8.60
2022-10-15T21:46:33.971Z,8.70
2022-10-15T21:49:03.995Z,8.77
2022-10-15T21:51:34.236Z,8.13
2022-10-15T21:54:05.057Z,8.25
2022-10-15T21:56:34.615Z,7.97
2022-10-15T21:59:03.354Z,8.18
2022-10-15T22:01:36.157Z,8.00
2022-10-15T22:04:07.756Z,7.40
2022-10-15T22:06:37.090Z,7.00
2022-10-15T22:09:05.935Z,7.20
2022-10-15T22:11:37.864Z,6.10
2022-10-15T22:14:11.777Z,6.60
2022-10-15T22:16:42.175Z,6.03
2022-10-15T22:19:15.125Z,5.32
2022-10-15T22:21:43.760Z,5.78
2022-10-15T22:24:15.091Z,6.30
2022-10-15T22:26:45.698Z,6.00
2022-10-15T22:29:20.457Z,6.50
2022-10-15T22:31:51.057Z,5.68
2022-10-15T22:34:21.692Z,5.85
2022-10-15T22:36:51.033Z,7.20
2022-10-15T22:39:20.373Z,6.10
2022-10-15T22:41:49.745Z,6.43
2022-10-15T22:44:21.007Z,6.80
2022-10-15T22:46:51.371Z,6.20
2022-10-15T22:49:23.038Z,6.63
2022-10-15T22:51:52.522Z,6.90
2022-10-15T22:54:22.858Z,7.03
2022-10-15T22:56:52.768Z,7.30
2022-10-15T22:59:21.894Z,7.03
2022-10-15T23:01:51.645Z,7.07
2022-10-15T23:04:19.941Z,7.45
2022-10-15T23:06:48.104Z,7.88
2022-10-15T23:09:17.803Z,8.25
2022-10-15T23:11:47.095Z,8.52
2022-10-15T23:14:17.883Z,8.23
2022-10-15T23:16:48.629Z,8.73
2022-10-15T23:19:21.388Z,8.68
2022-10-15T23:21:52.783Z,8.68
2022-10-15T23:24:23.496Z,8.75
2022-10-15T23:26:52.445Z,9.02
2022-10-15T23:29:24.088Z,8.75
2022-10-15T23:31:52.986Z,9.25
2022-10-15T23:34:24.970Z,9.27
2022-10-15T23:36:54.752Z,9.15
2022-10-15T23:39:27.738Z,9.60
2022-10-15T23:41:56.490Z,9.23
2022-10-15T23:44:26.619Z,9.13
2022-10-15T23:46:55.238Z,9.25
2022-10-15T23:49:24.739Z,9.38
2022-10-15T23:51:53.279Z,9.75
2022-10-15T23:54:21.493Z,9.82
2022-10-15T23:56:49.677Z,9.77
2022-10-15T23:59:18.239Z,9.30
